sensor_id;sensor_type;location;lat;lon;timestamp;pressure;altitude;pressure_sealevel;temperature;humidity
9325;BME280;4701;51.566;6.776;2023-02-11T07:02:46;103043.50;;;5.04;100.00
9325;BME280;4701;51.566;6.776;2023-02-11T07:04:48;103036.59;;;5.10;100.00
9325;BME280;4701;51.566;6.776;2023-02-11T07:06:50;103036.38;;;5.11;100.00
9325;BME280;4701;51.566;6.776;2023-02-11T07:08:53;103043.28;;;5.22;100.00
9325;BME280;4701;51.566;6.776;2023-02-11T07:10:55;103054.75;;;5.24;100.00
9325;BME280;4701;51.566;6.776;2023-02-11T07:12:57;103039.38;;;5.24;100.00
9325;BME280;4701;51.566;6.776;2023-02-11T07:14:59;103046.97;;;5.29;100.00
9325;BME280;4701;51.566;6.776;2023-02-11T07:17:00;103051.00;;;5.33;100.00
9325;BME280;4701;51.566;6.776;2023-02-11T07:19:04;103053.16;;;5.38;100.00
9325;BME280;4701;51.566;6.776;2023-02-11T07:21:07;103056.03;;;5.44;100.00
9325;BME280;4701;51.566;6.776;2023-02-11T07:23:09;103054.69;;;5.40;100.00
9325;BME280;4701;51.566;6.776;2023-02-11T07:25:11;103060.41;;;5.45;100.00
9325;BME280;4701;51.566;6.776;2023-02-11T07:27:13;103063.59;;;5.49;100.00
9325;BME280;4701;51.566;6.776;2023-02-11T07:29:15;103068.69;;;5.52;100.00
9325;BME280;4701;51.566;6.776;2023-02-11T07:31:18;103067.16;;;5.49;100.00
9325;BME280;4701;51.566;6.776;2023-02-11T07:33:20;103068.84;;;5.50;100.00
9325;BME280;4701;51.566;6.776;2023-02-11T07:35:24;103057.31;;;5.56;100.00
9325;BME280;4701;51.566;6.776;2023-02-11T07:37:25;103059.53;;;5.53;100.00
9325;BME280;4701;51.566;6.776;2023-02-11T07:39:27;103053.41;;;5.59;100.00
9325;BME280;4701;51.566;6.776;2023-02-11T07:41:29;103059.50;;;5.61;100.00
9325;BME280;4701;51.566;6.776;2023-02-11T07:43:31;103067.28;;;5.56;100.00
9325;BME280;4701;51.566;6.776;2023-02-11T07:45:33;103063.91;;;5.54;100.00
9325;BME280;4701;51.566;6.776;2023-02-11T07:47:35;103064.94;;;5.53;100.00
9325;BME280;4701;51.566;6.776;2023-02-11T07:49:37;103070.38;;;5.53;100.00
9325;BME280;4701;51.566;6.776;2023-02-11T07:51:41;103062.88;;;5.55;100.00
9325;BME280;4701;51.566;6.776;2023-02-11T07:53:43;103069.59;;;5.67;100.00
9325;BME280;4701;51.566;6.776;2023-02-11T07:55:45;103064.72;;;5.62;100.00
9325;BME280;4701;51.566;6.776;2023-02-11T07:57:47;103058.28;;;5.63;100.00
9325;BME280;4701;51.566;6.776;2023-02-11T07:59:50;103064.38;;;5.65;100.00
9325;BME280;4701;51.566;6.776;2023-02-11T08:01:52;103058.94;;;5.65;100.00
9325;BME280;4701;51.566;6.776;2023-02-11T08:03:54;103061.09;;;5.70;100.00
9325;BME280;4701;51.566;6.776;2023-02-11T08:05:56;103058.22;;;5.71;100.00
9325;BME280;4701;51.566;6.776;2023-02-11T08:08:00;103082.59;;;5.71;100.00
9325;BME280;4701;51.566;6.776;2023-02-11T08:10:02;103076.81;;;5.75;100.00
9325;BME280;4701;51.566;6.776;2023-02-11T08:12:04;103080.72;;;5.72;100.00
9325;BME280;4701;51.566;6.776;2023-02-11T08:14:06;103078.63;;;5.82;100.00
9325;BME280;4701;51.566;6.776;2023-02-11T08:16:08;103089.69;;;5.72;100.00
9325;BME280;4701;51.566;6.776;2023-02-11T08:18:10;103086.47;;;5.77;100.00
9325;BME280;4701;51.566;6.776;2023-02-11T08:20:12;103091.38;;;5.74;100.00
9325;BME280;4701;51.566;6.776;2023-02-11T08:22:14;103084.06;;;5.82;100.00
9325;BME280;4701;51.566;6.776;2023-02-11T08:24:17;103077.28;;;5.86;100.00
9325;BME280;4701;51.566;6.776;2023-02-11T08:26:21;103085.06;;;5.89;100.00
9325;BME280;4701;51.566;6.776;2023-02-11T08:28:23;103097.25;;;5.85;100.00
9325;BME280;4701;51.566;6.776;2023-02-11T08:30:25;103090.66;;;5.80;100.00
9325;BME280;4701;51.566;6.776;2023-02-11T08:32:27;103093.06;;;5.75;100.00
9325;BME280;4701;51.566;6.776;2023-02-11T08:34:28;103100.34;;;5.74;100.00
9325;BME280;4701;51.566;6.776;2023-02-11T08:36:32;103096.06;;;5.80;100.00
9325;BME280;4701;51.566;6.776;2023-02-11T08:38:35;103097.41;;;5.84;100.00
9325;BME280;4701;51.566;6.776;2023-02-11T08:40:38;103096.75;;;5.82;100.00
9325;BME280;4701;51.566;6.776;2023-02-11T08:42:40;103105.81;;;5.97;100.00
9325;BME280;4701;51.566;6.776;2023-02-11T08:44:42;103099.09;;;5.93;100.00
9325;BME280;4701;51.566;6.776;2023-02-11T08:46:44;103092.44;;;6.03;100.00
9325;BME280;4701;51.566;6.776;2023-02-11T08:48:46;103095.34;;;5.94;100.00
9325;BME280;4701;51.566;6.776;2023-02-11T08:50:48;103099.44;;;5.90;100.00
9325;BME280;4701;51.566;6.776;2023-02-11T08:52:50;103091.97;;;5.92;100.00
9325;BME280;4701;51.566;6.776;2023-02-11T08:54:52;103093.13;;;5.97;100.00
9325;BME280;4701;51.566;6.776;2023-02-11T08:56:56;103092.59;;;6.02;100.00
9325;BME280;4701;51.566;6.776;2023-02-11T08:58:58;103096.25;;;6.09;100.00
9325;BME280;4701;51.566;6.776;2023-02-11T09:00:59;103104.06;;;6.04;100.00
9325;BME280;4701;51.566;6.776;2023-02-11T09:03:01;103107.78;;;6.11;100.00
9325;BME280;4701;51.566;6.776;2023-02-11T09:05:03;103108.06;;;6.16;100.00
9325;BME280;4701;51.566;6.776;2023-02-11T09:07:05;103114.75;;;6.28;100.00
9325;BME280;4701;51.566;6.776;2023-02-11T09:09:10;103120.69;;;6.24;100.00
9325;BME280;4701;51.566;6.776;2023-02-11T09:11:13;103111.06;;;6.21;100.00
9325;BME280;4701;51.566;6.776;2023-02-11T09:13:16;103114.16;;;6.18;100.00
9325;BME280;4701;51.566;6.776;2023-02-11T09:15:17;103109.50;;;6.27;100.00
9325;BME280;4701;51.566;6.776;2023-02-11T09:17:19;103107.66;;;6.27;100.00
9325;BME280;4701;51.566;6.776;2023-02-11T09:19:22;103110.66;;;6.32;100.00
9325;BME280;4701;51.566;6.776;2023-02-11T09:21:24;103106.75;;;6.35;100.00
9325;BME280;4701;51.566;6.776;2023-02-11T09:23:26;103113.34;;;6.32;100.00
9325;BME280;4701;51.566;6.776;2023-02-11T09:25:27;103123.72;;;6.29;100.00
9325;BME280;4701;51.566;6.776;2023-02-11T09:27:29;103122.66;;;6.30;100.00
9325;BME280;4701;51.566;6.776;2023-02-11T09:29:33;103112.50;;;6.32;100.00
9325;BME280;4701;51.566;6.776;2023-02-11T09:31:35;103113.72;;;6.29;100.00
9325;BME280;4701;51.566;6.776;2023-02-11T09:33:38;103113.84;;;6.36;100.00
9325;BME280;4701;51.566;6.776;2023-02-11T09:35:41;103128.88;;;6.38;100.00
9325;BME280;4701;51.566;6.776;2023-02-11T09:37:43;103123.78;;;6.43;100.00
9325;BME280;4701;51.566;6.776;2023-02-11T09:39:45;103136.59;;;6.50;100.00
9325;BME280;4701;51.566;6.776;2023-02-11T09:44:37;103139.19;;;6.43;100.00
9325;BME280;4701;51.566;6.776;2023-02-11T09:46:40;103142.84;;;6.50;100.00
9325;BME280;4701;51.566;6.776;2023-02-11T09:48:45;103142.50;;;6.53;100.00
9325;BME280;4701;51.566;6.776;2023-02-11T09:50:50;103153.44;;;6.60;100.00
9325;BME280;4701;51.566;6.776;2023-02-11T09:52:57;103147.84;;;6.61;100.00
9325;BME280;4701;51.566;6.776;2023-02-11T09:55:02;103154.09;;;6.62;100.00
9325;BME280;4701;51.566;6.776;2023-02-11T09:57:06;103160.75;;;6.74;100.00
9325;BME280;4701;51.566;6.776;2023-02-11T09:59:10;103160.69;;;6.82;100.00
9325;BME280;4701;51.566;6.776;2023-02-11T10:01:25;103153.78;;;6.79;100.00
9325;BME280;4701;51.566;6.776;2023-02-11T10:03:39;103158.13;;;6.66;100.00
9325;BME280;4701;51.566;6.776;2023-02-11T10:06:13;103155.34;;;6.74;100.00
9325;BME280;4701;51.566;6.776;2023-02-11T10:08:28;103155.34;;;6.74;100.00
9325;BME280;4701;51.566;6.776;2023-02-11T10:10:42;103162.00;;;6.71;100.00
9325;BME280;4701;51.566;6.776;2023-02-11T10:12:58;103167.78;;;6.68;100.00
9325;BME280;4701;51.566;6.776;2023-02-11T10:15:09;103158.44;;;6.71;100.00
9325;BME280;4701;51.566;6.776;2023-02-11T10:17:21;103152.28;;;6.77;100.00
9325;BME280;4701;51.566;6.776;2023-02-11T10:19:37;103153.78;;;6.79;100.00
9325;BME280;4701;51.566;6.776;2023-02-11T10:21:49;103159.56;;;6.76;100.00
9325;BME280;4701;51.566;6.776;2023-02-11T10:23:55;103160.16;;;6.87;100.00
9325;BME280;4701;51.566;6.776;2023-02-11T10:25:57;103163.56;;;7.03;100.00
9325;BME280;4701;51.566;6.776;2023-02-11T10:28:10;103172.06;;;7.00;100.00
9325;BME280;4701;51.566;6.776;2023-02-11T10:30:19;103174.22;;;7.05;100.00
9325;BME280;4701;51.566;6.776;2023-02-11T10:32:31;103179.25;;;7.08;100.00
9325;BME280;4701;51.566;6.776;2023-02-11T10:34:39;103181.78;;;6.95;100.00
9325;BME280;4701;51.566;6.776;2023-02-11T10:36:43;103182.31;;;6.90;100.00
9325;BME280;4701;51.566;6.776;2023-02-11T10:38:45;103195.00;;;6.90;100.00
9325;BME280;4701;51.566;6.776;2023-02-11T10:40:47;103187.88;;;6.97;100.00
9325;BME280;4701;51.566;6.776;2023-02-11T10:42:51;103182.72;;;7.02;100.00
9325;BME280;4701;51.566;6.776;2023-02-11T10:44:57;103185.31;;;6.95;100.00
9325;BME280;4701;51.566;6.776;2023-02-11T10:47:04;103184.75;;;7.00;100.00
9325;BME280;4701;51.566;6.776;2023-02-11T10:49:35;103179.06;;;6.95;100.00
9325;BME280;4701;51.566;6.776;2023-02-11T10:51:38;103183.56;;;7.02;100.00
9325;BME280;4701;51.566;6.776;2023-02-11T10:53:39;103185.72;;;7.07;100.00
9325;BME280;4701;51.566;6.776;2023-02-11T10:55:49;103195.66;;;7.14;100.00
9325;BME280;4701;51.566;6.776;2023-02-11T10:57:54;103192.66;;;7.09;100.00
9325;BME280;4701;51.566;6.776;2023-02-11T10:59:59;103196.75;;;7.05;100.00
9325;BME280;4701;51.566;6.776;2023-02-11T11:02:04;103206.69;;;7.13;100.00
9325;BME280;4701;51.566;6.776;2023-02-11T11:04:36;103214.34;;;7.09;100.00
9325;BME280;4701;51.566;6.776;2023-02-11T11:06:40;103197.53;;;7.14;100.00
9325;BME280;4701;51.566;6.776;2023-02-11T11:08:44;103205.00;;;7.12;100.00
9325;BME280;4701;51.566;6.776;2023-02-11T11:10:47;103212.56;;;7.16;100.00
9325;BME280;4701;51.566;6.776;2023-02-11T11:12:49;103207.63;;;7.20;100.00
9325;BME280;4701;51.566;6.776;2023-02-11T11:14:54;103213.53;;;7.23;100.00
9325;BME280;4701;51.566;6.776;2023-02-11T11:16:56;103214.84;;;7.28;100.00
9325;BME280;4701;51.566;6.776;2023-02-11T11:19:18;103217.19;;;7.31;100.00
9325;BME280;4701;51.566;6.776;2023-02-11T11:21:23;103209.78;;;7.25;100.00
9325;BME280;4701;51.566;6.776;2023-02-11T11:23:27;103210.28;;;7.28;100.00
9325;BME280;4701;51.566;6.776;2023-02-11T11:25:29;103205.97;;;7.34;100.00
9325;BME280;4701;51.566;6.776;2023-02-11T11:27:31;103201.28;;;7.28;100.00
9325;BME280;4701;51.566;6.776;2023-02-11T11:29:35;103210.53;;;7.33;100.00
9325;BME280;4701;51.566;6.776;2023-02-11T11:31:46;103203.81;;;7.29;100.00
9325;BME280;4701;51.566;6.776;2023-02-11T11:33:51;103200.09;;;7.30;100.00
9325;BME280;4701;51.566;6.776;2023-02-11T11:35:57;103206.97;;;7.33;100.00
9325;BME280;4701;51.566;6.776;2023-02-11T11:38:03;103210.94;;;7.30;100.00
9325;BME280;4701;51.566;6.776;2023-02-11T11:40:08;103201.88;;;7.38;100.00
9325;BME280;4701;51.566;6.776;2023-02-11T11:42:24;103202.03;;;7.36;100.00
9325;BME280;4701;51.566;6.776;2023-02-11T11:44:29;103200.44;;;7.42;100.00
9325;BME280;4701;51.566;6.776;2023-02-11T11:46:33;103197.56;;;7.43;100.00
9325;BME280;4701;51.566;6.776;2023-02-11T11:48:37;103186.53;;;7.45;100.00
9325;BME280;4701;51.566;6.776;2023-02-11T11:50:42;103187.00;;;7.48;100.00
9325;BME280;4701;51.566;6.776;2023-02-11T11:52:48;103186.44;;;7.38;100.00
9325;BME280;4701;51.566;6.776;2023-02-11T11:54:57;103188.75;;;7.41;100.00
9325;BME280;4701;51.566;6.776;2023-02-11T11:57:04;103189.78;;;7.40;100.00
9325;BME280;4701;51.566;6.776;2023-02-11T11:59:10;103186.44;;;7.38;100.00
9325;BME280;4701;51.566;6.776;2023-02-11T12:01:19;103183.13;;;7.43;100.00
9325;BME280;4701;51.566;6.776;2023-02-11T12:06:17;103194.47;;;7.46;100.00
9325;BME280;4701;51.566;6.776;2023-02-11T12:08:28;103182.69;;;7.54;100.00
9325;BME280;4701;51.566;6.776;2023-02-11T12:10:48;103183.91;;;7.51;100.00
9325;BME280;4701;51.566;6.776;2023-02-11T12:13:02;103185.75;;;7.51;100.00
9325;BME280;4701;51.566;6.776;2023-02-11T12:15:16;103199.50;;;7.49;100.00
9325;BME280;4701;51.566;6.776;2023-02-11T12:17:35;103195.03;;;7.42;100.00
9325;BME280;4701;51.566;6.776;2023-02-11T12:19:49;103196.13;;;7.33;100.00
9325;BME280;4701;51.566;6.776;2023-02-11T12:22:02;103192.13;;;7.29;100.00
9325;BME280;4701;51.566;6.776;2023-02-11T12:24:20;103197.16;;;7.32;100.00
9325;BME280;4701;51.566;6.776;2023-02-11T12:26:36;103196.25;;;7.39;100.00
9325;BME280;4701;51.566;6.776;2023-02-11T12:28:57;103193.72;;;7.38;100.00
9325;BME280;4701;51.566;6.776;2023-02-11T12:31:14;103197.38;;;7.45;100.00
9325;BME280;4701;51.566;6.776;2023-02-11T12:33:28;103195.41;;;7.53;100.00
9325;BME280;4701;51.566;6.776;2023-02-11T12:35:42;103192.88;;;7.52;100.00
9325;BME280;4701;51.566;6.776;2023-02-11T12:38:03;103194.38;;;7.54;100.00
9325;BME280;4701;51.566;6.776;2023-02-11T12:40:15;103199.06;;;7.60;100.00
9325;BME280;4701;51.566;6.776;2023-02-11T12:42:49;103195.69;;;7.58;100.00
9325;BME280;4701;51.566;6.776;2023-02-11T12:45:19;103184.81;;;7.58;100.00
9325;BME280;4701;51.566;6.776;2023-02-11T12:47:28;103191.50;;;7.56;100.00
9325;BME280;4701;51.566;6.776;2023-02-11T12:49:46;103183.03;;;7.66;100.00
9325;BME280;4701;51.566;6.776;2023-02-11T12:52:02;103187.66;;;7.65;100.00
9325;BME280;4701;51.566;6.776;2023-02-11T12:54:16;103178.38;;;7.59;100.00
9325;BME280;4701;51.566;6.776;2023-02-11T12:56:24;103176.69;;;7.58;100.00
9325;BME280;4701;51.566;6.776;2023-02-11T12:58:33;103175.84;;;7.58;100.00
9325;BME280;4701;51.566;6.776;2023-02-11T13:00:41;103167.16;;;7.63;100.00
9325;BME280;4701;51.566;6.776;2023-02-11T13:02:49;103165.09;;;7.65;100.00
9325;BME280;4701;51.566;6.776;2023-02-11T13:04:56;103172.91;;;7.74;100.00
9325;BME280;4701;51.566;6.776;2023-02-11T13:07:03;103167.41;;;7.68;100.00
9325;BME280;4701;51.566;6.776;2023-02-11T13:09:10;103165.94;;;7.65;100.00
9325;BME280;4701;51.566;6.776;2023-02-11T13:11:19;103167.31;;;7.61;100.00
9325;BME280;4701;51.566;6.776;2023-02-11T13:13:26;103169.94;;;7.69;100.00
9325;BME280;4701;51.566;6.776;2023-02-11T13:15:32;103160.69;;;7.64;100.00
9325;BME280;4701;51.566;6.776;2023-02-11T13:17:38;103168.91;;;7.70;100.00
9325;BME280;4701;51.566;6.776;2023-02-11T13:19:46;103168.91;;;7.70;100.00
9325;BME280;4701;51.566;6.776;2023-02-11T13:21:55;103174.25;;;7.78;100.00
9325;BME280;4701;51.566;6.776;2023-02-11T13:24:06;103162.16;;;7.81;100.00
9325;BME280;4701;51.566;6.776;2023-02-11T13:26:27;103163.63;;;7.83;100.00
9325;BME280;4701;51.566;6.776;2023-02-11T13:28:39;103169.47;;;7.80;100.00
9325;BME280;4701;51.566;6.776;2023-02-11T13:30:46;103172.94;;;7.89;100.00
9325;BME280;4701;51.566;6.776;2023-02-11T13:33:15;103165.50;;;7.97;100.00
9325;BME280;4701;51.566;6.776;2023-02-11T13:35:28;103165.75;;;8.03;100.00
9325;BME280;4701;51.566;6.776;2023-02-11T13:37:33;103168.47;;;8.03;100.00
9325;BME280;4701;51.566;6.776;2023-02-11T13:39:36;103170.81;;;8.06;100.00
9325;BME280;4701;51.566;6.776;2023-02-11T13:41:39;103171.44;;;8.22;100.00
9325;BME280;4701;51.566;6.776;2023-02-11T13:43:43;103172.19;;;8.31;100.00
9325;BME280;4701;51.566;6.776;2023-02-11T13:45:47;103172.91;;;8.40;100.00
9325;BME280;4701;51.566;6.776;2023-02-11T13:47:55;103174.78;;;8.60;100.00
9325;BME280;4701;51.566;6.776;2023-02-11T13:49:59;103186.75;;;8.45;100.00
9325;BME280;4701;51.566;6.776;2023-02-11T13:52:04;103173.88;;;8.53;100.00
9325;BME280;4701;51.566;6.776;2023-02-11T13:54:07;103177.63;;;8.52;100.00
9325;BME280;4701;51.566;6.776;2023-02-11T13:56:23;103166.84;;;8.59;100.00
9325;BME280;4701;51.566;6.776;2023-02-11T13:58:36;103165.19;;;8.43;100.00
9325;BME280;4701;51.566;6.776;2023-02-11T14:00:45;103159.81;;;8.71;100.00
9325;BME280;4701;51.566;6.776;2023-02-11T14:03:21;103153.34;;;9.28;98.92
9325;BME280;4701;51.566;6.776;2023-02-11T14:06:12;103153.47;;;10.63;91.87
9325;BME280;4701;51.566;6.776;2023-02-11T14:08:32;103151.50;;;11.55;84.35
9325;BME280;4701;51.566;6.776;2023-02-11T14:10:53;103157.78;;;11.56;81.74
9325;BME280;4701;51.566;6.776;2023-02-11T14:13:05;103147.19;;;11.86;80.80
9325;BME280;4701;51.566;6.776;2023-02-11T14:15:18;103152.28;;;12.51;79.32
9325;BME280;4701;51.566;6.776;2023-02-11T14:17:29;103154.97;;;13.33;75.44
9325;BME280;4701;51.566;6.776;2023-02-11T14:19:34;103153.75;;;13.47;72.39
9325;BME280;4701;51.566;6.776;2023-02-11T14:21:37;103158.69;;;13.20;72.93
9325;BME280;4701;51.566;6.776;2023-02-11T14:23:40;103148.34;;;12.97;73.67
9325;BME280;4701;51.566;6.776;2023-02-11T14:25:44;103153.66;;;12.67;74.32
9325;BME280;4701;51.566;6.776;2023-02-11T14:27:55;103158.13;;;11.86;76.72
9325;BME280;4701;51.566;6.776;2023-02-11T14:32:45;103160.16;;;11.26;80.15
9325;BME280;4701;51.566;6.776;2023-02-11T14:34:59;103157.25;;;10.75;82.42
9325;BME280;4701;51.566;6.776;2023-02-11T14:37:13;103162.00;;;10.27;84.76
9325;BME280;4701;51.566;6.776;2023-02-11T14:39:27;103166.97;;;10.10;86.64
9325;BME280;4701;51.566;6.776;2023-02-11T14:41:37;103163.97;;;9.98;87.53
9325;BME280;4701;51.566;6.776;2023-02-11T14:43:43;103167.75;;;9.97;87.11
9325;BME280;4701;51.566;6.776;2023-02-11T14:45:49;103170.13;;;9.66;88.93
9325;BME280;4701;51.566;6.776;2023-02-11T14:47:57;103166.06;;;9.55;90.12
9325;BME280;4701;51.566;6.776;2023-02-11T14:50:04;103166.91;;;9.49;91.07
9325;BME280;4701;51.566;6.776;2023-02-11T14:52:15;103167.94;;;9.48;91.37
9325;BME280;4701;51.566;6.776;2023-02-11T14:54:23;103164.31;;;9.34;91.58
9325;BME280;4701;51.566;6.776;2023-02-11T14:56:27;103166.13;;;9.27;92.97
9325;BME280;4701;51.566;6.776;2023-02-11T14:58:31;103172.94;;;9.10;93.36
9325;BME280;4701;51.566;6.776;2023-02-11T15:00:33;103169.25;;;8.96;94.92
9325;BME280;4701;51.566;6.776;2023-02-11T15:02:36;103170.47;;;8.94;95.30
9325;BME280;4701;51.566;6.776;2023-02-11T15:04:38;103167.13;;;8.92;95.52
9325;BME280;4701;51.566;6.776;2023-02-11T15:06:46;103166.66;;;8.88;95.29
9325;BME280;4701;51.566;6.776;2023-02-11T15:08:51;103170.88;;;8.91;96.18
9325;BME280;4701;51.566;6.776;2023-02-11T15:10:54;103168.53;;;8.88;96.08
9325;BME280;4701;51.566;6.776;2023-02-11T15:12:58;103174.97;;;8.80;96.43
9325;BME280;4701;51.566;6.776;2023-02-11T15:15:00;103177.31;;;8.62;97.13
9325;BME280;4701;51.566;6.776;2023-02-11T15:17:05;103173.75;;;8.61;98.77
9325;BME280;4701;51.566;6.776;2023-02-11T15:19:18;103171.22;;;8.60;98.60
9325;BME280;4701;51.566;6.776;2023-02-11T15:21:23;103178.94;;;8.56;99.32
9325;BME280;4701;51.566;6.776;2023-02-11T15:23:29;103180.22;;;8.60;99.43
9325;BME280;4701;51.566;6.776;2023-02-11T15:25:31;103174.34;;;8.57;99.09
9325;BME280;4701;51.566;6.776;2023-02-11T15:27:38;103173.09;;;8.59;98.86
9325;BME280;4701;51.566;6.776;2023-02-11T15:29:42;103175.56;;;8.54;99.64
9325;BME280;4701;51.566;6.776;2023-02-11T15:31:45;103174.91;;;8.52;100.00
9325;BME280;4701;51.566;6.776;2023-02-11T15:33:46;103172.00;;;8.54;99.89
9325;BME280;4701;51.566;6.776;2023-02-11T15:35:48;103176.03;;;8.58;100.00
9325;BME280;4701;51.566;6.776;2023-02-11T15:37:51;103181.91;;;8.61;100.00
9325;BME280;4701;51.566;6.776;2023-02-11T15:39:54;103174.59;;;8.62;99.67
9325;BME280;4701;51.566;6.776;2023-02-11T15:42:22;103180.63;;;8.57;100.00
9325;BME280;4701;51.566;6.776;2023-02-11T15:44:29;103182.56;;;8.63;100.00
9325;BME280;4701;51.566;6.776;2023-02-11T15:46:36;103171.69;;;8.63;99.77
9325;BME280;4701;51.566;6.776;2023-02-11T15:48:42;103177.91;;;8.57;100.00
9325;BME280;4701;51.566;6.776;2023-02-11T15:50:49;103184.94;;;8.52;100.00
9325;BME280;4701;51.566;6.776;2023-02-11T15:52:52;103190.19;;;8.53;100.00
9325;BME280;4701;51.566;6.776;2023-02-11T15:54:58;103196.75;;;8.59;100.00
9325;BME280;4701;51.566;6.776;2023-02-11T15:57:02;103191.88;;;8.54;100.00
9325;BME280;4701;51.566;6.776;2023-02-11T15:59:10;103191.50;;;8.57;100.00
9325;BME280;4701;51.566;6.776;2023-02-11T16:01:16;103187.94;;;8.57;100.00
9325;BME280;4701;51.566;6.776;2023-02-11T16:03:20;103189.81;;;8.56;100.00
9325;BME280;4701;51.566;6.776;2023-02-11T16:05:26;103192.25;;;8.51;100.00
9325;BME280;4701;51.566;6.776;2023-02-11T16:07:43;103192.06;;;8.53;100.00
9325;BME280;4701;51.566;6.776;2023-02-11T16:09:45;103187.03;;;8.50;100.00
9325;BME280;4701;51.566;6.776;2023-02-11T16:11:55;103188.50;;;8.52;100.00
9325;BME280;4701;51.566;6.776;2023-02-11T16:13:59;103194.13;;;8.51;100.00
9325;BME280;4701;51.566;6.776;2023-02-11T16:16:14;103193.94;;;8.52;100.00
9325;BME280;4701;51.566;6.776;2023-02-11T16:18:32;103192.00;;;8.46;100.00
9325;BME280;4701;51.566;6.776;2023-02-11T16:20:34;103192.84;;;8.47;100.00
9325;BME280;4701;51.566;6.776;2023-02-11T16:22:36;103193.41;;;8.42;100.00
9325;BME280;4701;51.566;6.776;2023-02-11T16:24:39;103199.78;;;8.49;100.00
9325;BME280;4701;51.566;6.776;2023-02-11T16:26:46;103194.06;;;8.44;100.00
9325;BME280;4701;51.566;6.776;2023-02-11T16:28:50;103204.28;;;8.42;100.00
9325;BME280;4701;51.566;6.776;2023-02-11T16:30:53;103207.84;;;8.43;100.00
9325;BME280;4701;51.566;6.776;2023-02-11T16:32:55;103207.66;;;8.44;100.00
9325;BME280;4701;51.566;6.776;2023-02-11T16:34:58;103215.06;;;8.50;100.00
9325;BME280;4701;51.566;6.776;2023-02-11T16:37:02;103213.56;;;8.48;100.00
9325;BME280;4701;51.566;6.776;2023-02-11T16:39:04;103218.50;;;8.59;100.00
9325;BME280;4701;51.566;6.776;2023-02-11T16:41:06;103217.00;;;8.56;100.00
9325;BME280;4701;51.566;6.776;2023-02-11T16:43:11;103225.53;;;8.53;100.00
9325;BME280;4701;51.566;6.776;2023-02-11T16:45:14;103222.50;;;8.63;100.00
9325;BME280;4701;51.566;6.776;2023-02-11T16:47:21;103226.84;;;8.57;100.00
9325;BME280;4701;51.566;6.776;2023-02-11T16:49:26;103225.16;;;8.56;100.00
9325;BME280;4701;51.566;6.776;2023-02-11T16:51:30;103223.09;;;8.58;100.00
9325;BME280;4701;51.566;6.776;2023-02-11T16:53:31;103223.09;;;8.58;99.96
9325;BME280;4701;51.566;6.776;2023-02-11T16:55:33;103223.47;;;8.55;99.93
9325;BME280;4701;51.566;6.776;2023-02-11T16:57:35;103221.31;;;8.51;100.00
9325;BME280;4701;51.566;6.776;2023-02-11T16:59:37;103230.72;;;8.48;100.00
9325;BME280;4701;51.566;6.776;2023-02-11T17:01:41;103228.38;;;8.45;100.00
9325;BME280;4701;51.566;6.776;2023-02-11T17:03:44;103237.28;;;8.39;100.00
9325;BME280;4701;51.566;6.776;2023-02-11T17:05:45;103234.16;;;8.42;100.00
9325;BME280;4701;51.566;6.776;2023-02-11T17:07:47;103241.88;;;8.39;100.00
9325;BME280;4701;51.566;6.776;2023-02-11T17:09:49;103238.06;;;8.33;100.00
9325;BME280;4701;51.566;6.776;2023-02-11T17:11:52;103239.94;;;8.32;100.00
9325;BME280;4701;51.566;6.776;2023-02-11T17:13:54;103243.69;;;8.31;100.00
9325;BME280;4701;51.566;6.776;2023-02-11T17:15:56;103244.53;;;8.32;100.00
9325;BME280;4701;51.566;6.776;2023-02-11T17:17:59;103246.84;;;8.35;100.00
9325;BME280;4701;51.566;6.776;2023-02-11T17:20:01;103247.69;;;8.35;100.00
9325;BME280;4701;51.566;6.776;2023-02-11T17:22:03;103249.78;;;8.33;100.00
9325;BME280;4701;51.566;6.776;2023-02-11T17:24:05;103240.19;;;8.38;100.00
9325;BME280;4701;51.566;6.776;2023-02-11T17:26:07;103251.91;;;8.38;100.00
9325;BME280;4701;51.566;6.776;2023-02-11T17:28:09;103248.09;;;8.32;100.00
9325;BME280;4701;51.566;6.776;2023-02-11T17:30:13;103243.28;;;8.34;100.00
9325;BME280;4701;51.566;6.776;2023-02-11T17:32:15;103247.25;;;8.32;100.00
9325;BME280;4701;51.566;6.776;2023-02-11T17:34:19;103252.00;;;8.30;100.00
9325;BME280;4701;51.566;6.776;2023-02-11T17:36:21;103250.88;;;8.24;100.00
9325;BME280;4701;51.566;6.776;2023-02-11T17:38:23;103255.00;;;8.20;100.00
9325;BME280;4701;51.566;6.776;2023-02-11T17:40:24;103267.56;;;8.21;100.00
9325;BME280;4701;51.566;6.776;2023-02-11T17:42:26;103262.78;;;8.23;100.00
9325;BME280;4701;51.566;6.776;2023-02-11T17:44:30;103263.81;;;8.22;100.00
9325;BME280;4701;51.566;6.776;2023-02-11T17:46:32;103268.41;;;8.22;100.00
9325;BME280;4701;51.566;6.776;2023-02-11T17:48:36;103265.88;;;8.20;100.00
9325;BME280;4701;51.566;6.776;2023-02-11T17:50:39;103257.78;;;8.27;100.00
9325;BME280;4701;51.566;6.776;2023-02-11T17:52:41;103259.47;;;8.28;100.00
9325;BME280;4701;51.566;6.776;2023-02-11T17:54:43;103271.13;;;8.22;100.00
9325;BME280;4701;51.566;6.776;2023-02-11T17:56:45;103270.66;;;8.18;100.00
9325;BME280;4701;51.566;6.776;2023-02-11T17:58:49;103269.16;;;8.16;100.00
9325;BME280;4701;51.566;6.776;2023-02-11T18:00:56;103280.22;;;8.14;100.00
9325;BME280;4701;51.566;6.776;2023-02-11T18:02:58;103276.38;;;8.09;100.00
9325;BME280;4701;51.566;6.776;2023-02-11T18:05:02;103285.09;;;8.04;100.00
9325;BME280;4701;51.566;6.776;2023-02-11T18:07:05;103289.19;;;8.00;100.00
9325;BME280;4701;51.566;6.776;2023-02-11T18:09:07;103296.72;;;7.98;100.00
9325;BME280;4701;51.566;6.776;2023-02-11T18:11:11;103294.09;;;8.05;100.00
9325;BME280;4701;51.566;6.776;2023-02-11T18:13:12;103305.97;;;8.04;100.00
9325;BME280;4701;51.566;6.776;2023-02-11T18:15:14;103305.97;;;8.04;100.00
9325;BME280;4701;51.566;6.776;2023-02-11T18:17:16;103303.44;;;8.02;100.00
9325;BME280;4701;51.566;6.776;2023-02-11T18:19:19;103304.28;;;8.03;100.00
9325;BME280;4701;51.566;6.776;2023-02-11T18:21:21;103310.47;;;8.11;100.00
9325;BME280;4701;51.566;6.776;2023-02-11T18:23:25;103308.88;;;8.02;100.00
9325;BME280;4701;51.566;6.776;2023-02-11T18:25:26;103305.72;;;7.98;100.00
9325;BME280;4701;51.566;6.776;2023-02-11T18:27:29;103310.06;;;7.99;100.00
9325;BME280;4701;51.566;6.776;2023-02-11T18:29:31;103304.66;;;7.99;100.00